Bloomington, IN

2:49 PM EST on December 27, 2014 (GMT -0500)
APRSWXNET Speedway IN US | Change Station
CLOSE
Current Station
Personal Weather Station
Location: Bloomington, IN
Elevation: 771 ft
Nearby Weather Stations

Elev 771 ft 39.13 °N, 86.45 °W | Updated 34 minutes ago

Rain
Rain
47 °F
Feels Like 47 °F
N
3
Wind Variable Wind from WSW
Gusts 6.0 mph

Today
High -- | Low -- °F
--% Chance of Precip.
Yesterday
High -- | Low -- °F
Precip. -- in
8:03 AM 5:30 PM
Waxing Crescent, 39% visible
Pressure 30.09 in
Visibility 5.0 miles
Clouds Overcast 400 ft
Windchill 47 °F
Dew Point 45 °F
Humidity 92%
Rainfall 0.10 in
Snow Depth Not available.
UV 1 out of 12
Pollen .10 out of 12
Air Quality Not available.
Flu Activity Not available.
SPECI KBMG 271913Z 24006KT 5SM -RA BR OVC004 08/08 A3009 RMK AO2 RAB1857 P0000 T00830078

More Conditions Fewer Conditions

Pressure 30.09 in
Visibility 5.0 miles
Clouds Overcast 400 ft
Windchill 47 °F
Dew Point 45 °F
Humidity 92%
Rainfall 0.10 in
Snow Depth Not available.
UV 1 out of 12
Pollen .10 out of 12
Air Quality Not available.
Flu Activity Not available.
SPECI KBMG 271913Z 24006KT 5SM -RA BR OVC004 08/08 A3009 RMK AO2 RAB1857 P0000 T00830078

More Conditions Fewer Conditions

10-Day Weather Forecast

Almanac

Astronomy

Dec. 27, 2014 Rise Set
Actual Time
Civil Twilight
Nautical Twilight
Astronomical Twilight
Moon
Length of Visible Light
Length of Day
Tomorrow will be .
, % of the Moon is Illuminated

Today's Extremes

State Highs State Lows

Community

WunderPhotos

Upload Photos

1,781,028 photos uploaded!

WunderBlogs® & News

Nearby

Air Quality

  Air Quality AQ Index Pollutant
Not available.

Snow Depth

Station Depth Elevation

Earthquake Activity

City Distance Mag. Time & Date
Minimum magnitude displayed is 2.5.

Coastal Water Temperatures

Place Temperature

Nearby Weather Stations